sensor_id;sensor_type;location;lat;lon;timestamp;pressure;altitude;pressure_sealevel;temperature
55602;BMP280;59921;51.332;12.410;2023-07-24T00:01:04;99456.63;;;26.74
55602;BMP280;59921;51.332;12.410;2023-07-24T00:03:30;99450.34;;;26.73
55602;BMP280;59921;51.332;12.410;2023-07-24T00:05:59;99443.31;;;26.72
55602;BMP280;59921;51.332;12.410;2023-07-24T00:08:24;99452.38;;;26.73
55602;BMP280;59921;51.332;12.410;2023-07-24T00:10:50;99450.34;;;26.73
55602;BMP280;59921;51.332;12.410;2023-07-24T00:13:16;99434.28;;;26.72
55602;BMP280;59921;51.332;12.410;2023-07-24T00:15:41;99442.06;;;26.73
55602;BMP280;59921;51.332;12.410;2023-07-24T00:18:07;99433.53;;;26.71
55602;BMP280;59921;51.332;12.410;2023-07-24T00:20:33;99438.53;;;26.73
55602;BMP280;59921;51.332;12.410;2023-07-24T00:22:58;99434.53;;;26.74
55602;BMP280;59921;51.332;12.410;2023-07-24T00:25:24;99428.75;;;26.72
55602;BMP280;59921;51.332;12.410;2023-07-24T00:27:49;99426.75;;;26.72
55602;BMP280;59921;51.332;12.410;2023-07-24T00:30:14;99425.25;;;26.71
55602;BMP280;59921;51.332;12.410;2023-07-24T00:32:40;99419.72;;;26.71
55602;BMP280;59921;51.332;12.410;2023-07-24T00:35:06;99416.44;;;26.73
55602;BMP280;59921;51.332;12.410;2023-07-24T00:37:32;99417.69;;;26.72
55602;BMP280;59921;51.332;12.410;2023-07-24T00:39:57;99409.41;;;26.72
55602;BMP280;59921;51.332;12.410;2023-07-24T00:42:45;99416.94;;;26.71
55602;BMP280;59921;51.332;12.410;2023-07-24T00:45:11;99410.69;;;26.71
55602;BMP280;59921;51.332;12.410;2023-07-24T00:50:42;99410.16;;;26.72
55602;BMP280;59921;51.332;12.410;2023-07-24T00:53:07;99407.19;;;26.70
55602;BMP280;59921;51.332;12.410;2023-07-24T00:55:33;99409.19;;;26.70
55602;BMP280;59921;51.332;12.410;2023-07-24T00:57:59;99410.16;;;26.72
55602;BMP280;59921;51.332;12.410;2023-07-24T01:00:25;99401.66;;;26.70
55602;BMP280;59921;51.332;12.410;2023-07-24T01:02:51;99414.19;;;26.71
55602;BMP280;59921;51.332;12.410;2023-07-24T01:05:28;99400.16;;;26.69
55602;BMP280;59921;51.332;12.410;2023-07-24T01:07:55;99397.59;;;26.71
55602;BMP280;59921;51.332;12.410;2023-07-24T01:10:20;99391.34;;;26.71
55602;BMP280;59921;51.332;12.410;2023-07-24T01:13:24;99381.53;;;26.70
55602;BMP280;59921;51.332;12.410;2023-07-24T01:16:03;99389.84;;;26.70
55602;BMP280;59921;51.332;12.410;2023-07-24T01:18:31;99383.78;;;26.71
55602;BMP280;59921;51.332;12.410;2023-07-24T01:20:58;99384.31;;;26.70
55602;BMP280;59921;51.332;12.410;2023-07-24T01:26:16;99394.09;;;26.71
55602;BMP280;59921;51.332;12.410;2023-07-24T01:28:42;99385.06;;;26.70
55602;BMP280;59921;51.332;12.410;2023-07-24T01:31:07;99382.28;;;26.70
55602;BMP280;59921;51.332;12.410;2023-07-24T01:33:33;99380.03;;;26.69
55602;BMP280;59921;51.332;12.410;2023-07-24T01:36:02;99384.31;;;26.70
55602;BMP280;59921;51.332;12.410;2023-07-24T01:38:28;99381.53;;;26.70
55602;BMP280;59921;51.332;12.410;2023-07-24T01:40:56;99373.25;;;26.70
55602;BMP280;59921;51.332;12.410;2023-07-24T01:43:25;99379.53;;;26.70
55602;BMP280;59921;51.332;12.410;2023-07-24T01:45:52;99382.28;;;26.70
55602;BMP280;59921;51.332;12.410;2023-07-24T01:48:18;99374.00;;;26.70
55602;BMP280;59921;51.332;12.410;2023-07-24T01:50:43;99379.28;;;26.68
55602;BMP280;59921;51.332;12.410;2023-07-24T01:53:09;99369.75;;;26.69
55602;BMP280;59921;51.332;12.410;2023-07-24T01:55:35;99368.47;;;26.70
55602;BMP280;59921;51.332;12.410;2023-07-24T01:58:00;99364.22;;;26.69
55602;BMP280;59921;51.332;12.410;2023-07-24T02:00:26;99361.44;;;26.69
55602;BMP280;59921;51.332;12.410;2023-07-24T02:02:52;99368.47;;;26.70
55602;BMP280;59921;51.332;12.410;2023-07-24T02:05:17;99369.75;;;26.69
55602;BMP280;59921;51.332;12.410;2023-07-24T02:07:43;99376.03;;;26.70
55602;BMP280;59921;51.332;12.410;2023-07-24T02:10:09;99374.00;;;26.70
55602;BMP280;59921;51.332;12.410;2023-07-24T02:12:34;99376.75;;;26.70
55602;BMP280;59921;51.332;12.410;2023-07-24T02:15:00;99367.47;;;26.68
55602;BMP280;59921;51.332;12.410;2023-07-24T02:17:26;99366.97;;;26.69
55602;BMP280;59921;51.332;12.410;2023-07-24T02:19:51;99365.47;;;26.68
55602;BMP280;59921;51.332;12.410;2023-07-24T02:22:17;99376.03;;;26.70
55602;BMP280;59921;51.332;12.410;2023-07-24T02:24:42;99378.03;;;26.69
55602;BMP280;59921;51.332;12.410;2023-07-24T02:27:12;99380.03;;;26.69
55602;BMP280;59921;51.332;12.410;2023-07-24T02:29:38;99369.75;;;26.69
55602;BMP280;59921;51.332;12.410;2023-07-24T02:32:04;99361.44;;;26.69
55602;BMP280;59921;51.332;12.410;2023-07-24T02:34:30;99364.22;;;26.69
55602;BMP280;59921;51.332;12.410;2023-07-24T02:39:58;99363.69;;;26.71
55602;BMP280;59921;51.332;12.410;2023-07-24T02:42:23;99359.94;;;26.68
55602;BMP280;59921;51.332;12.410;2023-07-24T02:44:48;99353.66;;;26.68
55602;BMP280;59921;51.332;12.410;2023-07-24T02:47:14;99348.88;;;26.68
55602;BMP280;59921;51.332;12.410;2023-07-24T02:49:40;99348.88;;;26.68
55602;BMP280;59921;51.332;12.410;2023-07-24T02:52:05;99339.84;;;26.68
55602;BMP280;59921;51.332;12.410;2023-07-24T02:54:31;99347.44;;;26.67
55602;BMP280;59921;51.332;12.410;2023-07-24T02:56:57;99354.41;;;26.68
55602;BMP280;59921;51.332;12.410;2023-07-24T02:59:23;99341.16;;;26.67
55602;BMP280;59921;51.332;12.410;2023-07-24T03:04:32;99339.34;;;26.69
55602;BMP280;59921;51.332;12.410;2023-07-24T03:06:58;99350.91;;;26.68
55602;BMP280;59921;51.332;12.410;2023-07-24T03:09:24;99343.94;;;26.67
55602;BMP280;59921;51.332;12.410;2023-07-24T03:11:49;99343.19;;;26.66
55602;BMP280;59921;51.332;12.410;2023-07-24T03:14:49;99352.22;;;26.67
55602;BMP280;59921;51.332;12.410;2023-07-24T03:17:33;99349.63;;;26.69
55602;BMP280;59921;51.332;12.410;2023-07-24T03:19:59;99350.19;;;26.67
55602;BMP280;59921;51.332;12.410;2023-07-24T03:22:25;99341.91;;;26.67
55602;BMP280;59921;51.332;12.410;2023-07-24T03:24:50;99339.16;;;26.67
55602;BMP280;59921;51.332;12.410;2023-07-24T03:27:16;99333.06;;;26.69
55602;BMP280;59921;51.332;12.410;2023-07-24T03:29:41;99333.38;;;26.65
55602;BMP280;59921;51.332;12.410;2023-07-24T03:32:07;99336.38;;;26.67
55602;BMP280;59921;51.332;12.410;2023-07-24T03:34:33;99332.88;;;26.67
55602;BMP280;59921;51.332;12.410;2023-07-24T03:36:58;99332.31;;;26.68
55602;BMP280;59921;51.332;12.410;2023-07-24T03:39:24;99328.78;;;26.68
55602;BMP280;59921;51.332;12.410;2023-07-24T03:41:49;99326.03;;;26.68
55602;BMP280;59921;51.332;12.410;2023-07-24T03:44:15;99325.31;;;26.67
55602;BMP280;59921;51.332;12.410;2023-07-24T03:46:40;99323.81;;;26.66
55602;BMP280;59921;51.332;12.410;2023-07-24T03:49:06;99326.78;;;26.68
55602;BMP280;59921;51.332;12.410;2023-07-24T03:51:31;99329.53;;;26.68
55602;BMP280;59921;51.332;12.410;2023-07-24T03:53:58;99321.25;;;26.68
55602;BMP280;59921;51.332;12.410;2023-07-24T03:56:24;99317.22;;;26.69
55602;BMP280;59921;51.332;12.410;2023-07-24T03:58:49;99327.53;;;26.69
55602;BMP280;59921;51.332;12.410;2023-07-24T04:01:15;99318.47;;;26.68
55602;BMP280;59921;51.332;12.410;2023-07-24T04:03:40;99325.50;;;26.69
55602;BMP280;59921;51.332;12.410;2023-07-24T04:06:06;99318.47;;;26.68
55602;BMP280;59921;51.332;12.410;2023-07-24T04:08:32;99327.75;;;26.71
55602;BMP280;59921;51.332;12.410;2023-07-24T04:10:57;99319.47;;;26.71
55602;BMP280;59921;51.332;12.410;2023-07-24T04:13:23;99321.47;;;26.70
55602;BMP280;59921;51.332;12.410;2023-07-24T04:15:48;99315.19;;;26.70
55602;BMP280;59921;51.332;12.410;2023-07-24T04:18:14;99318.72;;;26.70
55602;BMP280;59921;51.332;12.410;2023-07-24T04:20:39;99315.41;;;26.72
55602;BMP280;59921;51.332;12.410;2023-07-24T04:23:05;99311.91;;;26.71
55602;BMP280;59921;51.332;12.410;2023-07-24T04:25:30;99307.13;;;26.72
55602;BMP280;59921;51.332;12.410;2023-07-24T04:27:56;99314.66;;;26.71
55602;BMP280;59921;51.332;12.410;2023-07-24T04:30:21;99309.38;;;26.73
55602;BMP280;59921;51.332;12.410;2023-07-24T04:32:47;99315.66;;;26.74
55602;BMP280;59921;51.332;12.410;2023-07-24T04:35:12;99308.81;;;26.75
55602;BMP280;59921;51.332;12.410;2023-07-24T04:37:38;99313.81;;;26.76
55602;BMP280;59921;51.332;12.410;2023-07-24T04:40:04;99315.84;;;26.76
55602;BMP280;59921;51.332;12.410;2023-07-24T04:42:30;99310.31;;;26.76
55602;BMP280;59921;51.332;12.410;2023-07-24T04:44:56;99320.09;;;26.77
55602;BMP280;59921;51.332;12.410;2023-07-24T04:47:22;99314.78;;;26.79
55602;BMP280;59921;51.332;12.410;2023-07-24T04:49:47;99310.00;;;26.79
55602;BMP280;59921;51.332;12.410;2023-07-24T04:52:13;99310.75;;;26.80
55602;BMP280;59921;51.332;12.410;2023-07-24T04:54:38;99309.47;;;26.81
55602;BMP280;59921;51.332;12.410;2023-07-24T04:57:04;99306.69;;;26.81
55602;BMP280;59921;51.332;12.410;2023-07-24T04:59:29;99303.38;;;26.82
55602;BMP280;59921;51.332;12.410;2023-07-24T05:01:55;99295.09;;;26.82
55602;BMP280;59921;51.332;12.410;2023-07-24T05:04:21;99296.59;;;26.83
55602;BMP280;59921;51.332;12.410;2023-07-24T05:06:46;99294.78;;;26.86
55602;BMP280;59921;51.332;12.410;2023-07-24T05:09:12;99299.56;;;26.85
55602;BMP280;59921;51.332;12.410;2023-07-24T05:11:37;99300.31;;;26.86
55602;BMP280;59921;51.332;12.410;2023-07-24T05:14:03;99297.00;;;26.87
55602;BMP280;59921;51.332;12.410;2023-07-24T05:16:28;99304.59;;;26.87
55602;BMP280;59921;51.332;12.410;2023-07-24T05:18:54;99299.56;;;26.85
55602;BMP280;59921;51.332;12.410;2023-07-24T05:21:20;99297.22;;;26.89
55602;BMP280;59921;51.332;12.410;2023-07-24T05:23:45;99300.19;;;26.91
55602;BMP280;59921;51.332;12.410;2023-07-24T05:26:11;99305.22;;;26.93
55602;BMP280;59921;51.332;12.410;2023-07-24T05:28:36;99300.41;;;26.93
55602;BMP280;59921;51.332;12.410;2023-07-24T05:31:03;99308.19;;;26.95
55602;BMP280;59921;51.332;12.410;2023-07-24T05:33:30;99297.84;;;26.95
55602;BMP280;59921;51.332;12.410;2023-07-24T05:36:02;99294.88;;;26.93
55602;BMP280;59921;51.332;12.410;2023-07-24T05:38:28;99302.66;;;26.95
55602;BMP280;59921;51.332;12.410;2023-07-24T05:41:01;99303.38;;;26.95
55602;BMP280;59921;51.332;12.410;2023-07-24T05:43:28;99299.88;;;26.95
55602;BMP280;59921;51.332;12.410;2023-07-24T05:45:54;99306.13;;;26.95
55602;BMP280;59921;51.332;12.410;2023-07-24T05:48:25;99301.56;;;26.98
55602;BMP280;59921;51.332;12.410;2023-07-24T05:50:50;99299.56;;;26.98
55602;BMP280;59921;51.332;12.410;2023-07-24T05:53:16;99309.31;;;26.99
55602;BMP280;59921;51.332;12.410;2023-07-24T05:55:43;99301.03;;;26.99
55602;BMP280;59921;51.332;12.410;2023-07-24T05:58:09;99302.53;;;27.00
55602;BMP280;59921;51.332;12.410;2023-07-24T06:00:35;99304.03;;;27.01
55602;BMP280;59921;51.332;12.410;2023-07-24T06:03:02;99287.44;;;27.01
55602;BMP280;59921;51.332;12.410;2023-07-24T06:05:28;99295.91;;;27.03
55602;BMP280;59921;51.332;12.410;2023-07-24T06:07:54;99298.69;;;27.03
55602;BMP280;59921;51.332;12.410;2023-07-24T06:10:20;99285.59;;;27.04
55602;BMP280;59921;51.332;12.410;2023-07-24T06:12:45;99276.78;;;27.05
55602;BMP280;59921;51.332;12.410;2023-07-24T06:15:11;99270.50;;;27.05
55602;BMP280;59921;51.332;12.410;2023-07-24T06:17:36;99258.91;;;27.06
55602;BMP280;59921;51.332;12.410;2023-07-24T06:20:02;99252.84;;;27.08
55602;BMP280;59921;51.332;12.410;2023-07-24T06:22:27;99248.06;;;27.08
55602;BMP280;59921;51.332;12.410;2023-07-24T06:24:53;99250.84;;;27.08
55602;BMP280;59921;51.332;12.410;2023-07-24T06:27:18;99263.34;;;27.09
55602;BMP280;59921;51.332;12.410;2023-07-24T06:29:44;99260.06;;;27.11
55602;BMP280;59921;51.332;12.410;2023-07-24T06:32:09;99256.03;;;27.12
55602;BMP280;59921;51.332;12.410;2023-07-24T06:34:35;99258.78;;;27.12
55602;BMP280;59921;51.332;12.410;2023-07-24T06:37:00;99264.31;;;27.12
55602;BMP280;59921;51.332;12.410;2023-07-24T06:39:26;99269.84;;;27.12
55602;BMP280;59921;51.332;12.410;2023-07-24T06:41:54;99259.00;;;27.14
55602;BMP280;59921;51.332;12.410;2023-07-24T06:44:20;99258.25;;;27.13
55602;BMP280;59921;51.332;12.410;2023-07-24T06:46:46;99256.97;;;27.14
55602;BMP280;59921;51.332;12.410;2023-07-24T06:49:12;99259.75;;;27.14
55602;BMP280;59921;51.332;12.410;2023-07-24T06:51:37;99254.38;;;27.16
55602;BMP280;59921;51.332;12.410;2023-07-24T06:54:04;99259.91;;;27.16
55602;BMP280;59921;51.332;12.410;2023-07-24T06:56:31;99259.16;;;27.16
55602;BMP280;59921;51.332;12.410;2023-07-24T06:58:56;99252.38;;;27.17
55602;BMP280;59921;51.332;12.410;2023-07-24T07:01:22;99263.44;;;27.17
55602;BMP280;59921;51.332;12.410;2023-07-24T07:03:47;99264.19;;;27.17
55602;BMP280;59921;51.332;12.410;2023-07-24T07:06:13;99255.34;;;27.19
55602;BMP280;59921;51.332;12.410;2023-07-24T07:08:39;99241.50;;;27.19
55602;BMP280;59921;51.332;12.410;2023-07-24T07:11:05;99235.47;;;27.20
55602;BMP280;59921;51.332;12.410;2023-07-24T07:13:30;99245.78;;;27.20
55602;BMP280;59921;51.332;12.410;2023-07-24T07:16:03;99247.28;;;27.21
55602;BMP280;59921;51.332;12.410;2023-07-24T07:18:28;99242.25;;;27.19
55602;BMP280;59921;51.332;12.410;2023-07-24T07:20:59;99247.03;;;27.19
55602;BMP280;59921;51.332;12.410;2023-07-24T07:23:29;99235.97;;;27.19
55602;BMP280;59921;51.332;12.410;2023-07-24T07:25:55;99235.97;;;27.19
55602;BMP280;59921;51.332;12.410;2023-07-24T07:28:20;99228.44;;;27.19
55602;BMP280;59921;51.332;12.410;2023-07-24T07:30:46;99232.69;;;27.20
55602;BMP280;59921;51.332;12.410;2023-07-24T07:33:12;99228.63;;;27.21
55602;BMP280;59921;51.332;12.410;2023-07-24T07:35:37;99233.63;;;27.23
55602;BMP280;59921;51.332;12.410;2023-07-24T07:38:03;99220.53;;;27.23
55602;BMP280;59921;51.332;12.410;2023-07-24T07:40:29;99229.03;;;27.25
55602;BMP280;59921;51.332;12.410;2023-07-24T07:42:56;99224.25;;;27.26
55602;BMP280;59921;51.332;12.410;2023-07-24T07:45:24;99220.22;;;27.27
55602;BMP280;59921;51.332;12.410;2023-07-24T07:47:50;99216.72;;;27.26
55602;BMP280;59921;51.332;12.410;2023-07-24T07:50:18;99225.22;;;27.28
55602;BMP280;59921;51.332;12.410;2023-07-24T07:52:44;99216.91;;;27.28
55602;BMP280;59921;51.332;12.410;2023-07-24T07:55:09;99228.72;;;27.29
55602;BMP280;59921;51.332;12.410;2023-07-24T07:57:36;99216.16;;;27.28
55602;BMP280;59921;51.332;12.410;2023-07-24T08:00:03;99211.38;;;27.28
55602;BMP280;59921;51.332;12.410;2023-07-24T08:02:29;99200.31;;;27.28
55602;BMP280;59921;51.332;12.410;2023-07-24T08:04:57;99199.00;;;27.29
55602;BMP280;59921;51.332;12.410;2023-07-24T08:07:23;99208.06;;;27.30
55602;BMP280;59921;51.332;12.410;2023-07-24T08:09:48;99200.50;;;27.30
55602;BMP280;59921;51.332;12.410;2023-07-24T08:12:14;99203.28;;;27.30
55602;BMP280;59921;51.332;12.410;2023-07-24T08:14:39;99204.75;;;27.31
55602;BMP280;59921;51.332;12.410;2023-07-24T08:17:05;99203.47;;;27.33
55602;BMP280;59921;51.332;12.410;2023-07-24T08:19:31;99195.94;;;27.33
55602;BMP280;59921;51.332;12.410;2023-07-24T08:21:56;99197.94;;;27.33
55602;BMP280;59921;51.332;12.410;2023-07-24T08:24:22;99195.38;;;27.35
55602;BMP280;59921;51.332;12.410;2023-07-24T08:26:48;99196.13;;;27.35
55602;BMP280;59921;51.332;12.410;2023-07-24T08:29:14;99194.63;;;27.34
55602;BMP280;59921;51.332;12.410;2023-07-24T08:31:39;99194.13;;;27.36
55602;BMP280;59921;51.332;12.410;2023-07-24T08:34:05;99195.59;;;27.37
55602;BMP280;59921;51.332;12.410;2023-07-24T08:36:31;99187.47;;;27.39
55602;BMP280;59921;51.332;12.410;2023-07-24T08:38:56;99187.47;;;27.39
55602;BMP280;59921;51.332;12.410;2023-07-24T08:41:22;99189.50;;;27.38
55602;BMP280;59921;51.332;12.410;2023-07-24T08:43:47;99184.72;;;27.39
55602;BMP280;59921;51.332;12.410;2023-07-24T08:46:15;99186.72;;;27.38
55602;BMP280;59921;51.332;12.410;2023-07-24T08:48:42;99190.25;;;27.39
55602;BMP280;59921;51.332;12.410;2023-07-24T08:51:10;99199.28;;;27.39
55602;BMP280;59921;51.332;12.410;2023-07-24T08:53:37;99195.78;;;27.39
55602;BMP280;59921;51.332;12.410;2023-07-24T08:56:05;99202.28;;;27.41
55602;BMP280;59921;51.332;12.410;2023-07-24T08:58:30;99203.75;;;27.42
55602;BMP280;59921;51.332;12.410;2023-07-24T09:00:57;99196.22;;;27.43
55602;BMP280;59921;51.332;12.410;2023-07-24T09:03:23;99192.13;;;27.44
55602;BMP280;59921;51.332;12.410;2023-07-24T09:05:49;99190.09;;;27.44
55602;BMP280;59921;51.332;12.410;2023-07-24T09:08:15;99188.84;;;27.45
55602;BMP280;59921;51.332;12.410;2023-07-24T09:10:41;99189.59;;;27.46
55602;BMP280;59921;51.332;12.410;2023-07-24T09:13:07;99178.50;;;27.46
55602;BMP280;59921;51.332;12.410;2023-07-24T09:15:45;99165.94;;;27.45
55602;BMP280;59921;51.332;12.410;2023-07-24T09:18:11;99175.00;;;27.45
55602;BMP280;59921;51.332;12.410;2023-07-24T09:20:41;99168.91;;;27.47
55602;BMP280;59921;51.332;12.410;2023-07-24T09:23:08;99169.66;;;27.47
55602;BMP280;59921;51.332;12.410;2023-07-24T09:25:38;99165.63;;;27.48
55602;BMP280;59921;51.332;12.410;2023-07-24T09:28:10;99153.28;;;27.49
55602;BMP280;59921;51.332;12.410;2023-07-24T09:30:37;99157.50;;;27.50
55602;BMP280;59921;51.332;12.410;2023-07-24T09:33:03;99152.69;;;27.51
55602;BMP280;59921;51.332;12.410;2023-07-24T09:35:29;99154.72;;;27.50
55602;BMP280;59921;51.332;12.410;2023-07-24T09:38:05;99155.47;;;27.51
55602;BMP280;59921;51.332;12.410;2023-07-24T09:40:39;99158.81;;;27.49
55602;BMP280;59921;51.332;12.410;2023-07-24T09:43:19;99161.00;;;27.51
55602;BMP280;59921;51.332;12.410;2023-07-24T09:45:45;99168.78;;;27.52
55602;BMP280;59921;51.332;12.410;2023-07-24T09:48:13;99171.56;;;27.52
55602;BMP280;59921;51.332;12.410;2023-07-24T09:50:41;99161.97;;;27.53
55602;BMP280;59921;51.332;12.410;2023-07-24T09:53:13;99158.44;;;27.53
55602;BMP280;59921;51.332;12.410;2023-07-24T09:56:02;99165.47;;;27.54
55602;BMP280;59921;51.332;12.410;2023-07-24T09:58:29;99152.91;;;27.53
55602;BMP280;59921;51.332;12.410;2023-07-24T10:00:55;99150.88;;;27.53
55602;BMP280;59921;51.332;12.410;2023-07-24T10:03:23;99139.06;;;27.53
55602;BMP280;59921;51.332;12.410;2023-07-24T10:05:49;99146.09;;;27.54
55602;BMP280;59921;51.332;12.410;2023-07-24T10:08:17;99141.84;;;27.53
55602;BMP280;59921;51.332;12.410;2023-07-24T10:10:43;99135.03;;;27.54
55602;BMP280;59921;51.332;12.410;2023-07-24T10:13:09;99137.78;;;27.54
55602;BMP280;59921;51.332;12.410;2023-07-24T10:15:37;99117.69;;;27.53
55602;BMP280;59921;51.332;12.410;2023-07-24T10:18:05;99106.81;;;27.55
55602;BMP280;59921;51.332;12.410;2023-07-24T10:20:34;99103.50;;;27.57
55602;BMP280;59921;51.332;12.410;2023-07-24T10:23:02;99107.19;;;27.59
55602;BMP280;59921;51.332;12.410;2023-07-24T10:25:32;99098.38;;;27.61
55602;BMP280;59921;51.332;12.410;2023-07-24T10:28:02;99105.91;;;27.60
55602;BMP280;59921;51.332;12.410;2023-07-24T10:30:31;99084.53;;;27.61
55602;BMP280;59921;51.332;12.410;2023-07-24T10:35:49;99086.19;;;27.64
55602;BMP280;59921;51.332;12.410;2023-07-24T10:38:16;99072.34;;;27.64
55602;BMP280;59921;51.332;12.410;2023-07-24T10:40:42;99077.88;;;27.64
55602;BMP280;59921;51.332;12.410;2023-07-24T10:43:13;99072.34;;;27.64
55602;BMP280;59921;51.332;12.410;2023-07-24T10:45:46;99065.53;;;27.65
55602;BMP280;59921;51.332;12.410;2023-07-24T10:48:13;99068.31;;;27.65
55602;BMP280;59921;51.332;12.410;2023-07-24T10:50:41;99057.94;;;27.65
55602;BMP280;59921;51.332;12.410;2023-07-24T10:53:08;99060.72;;;27.65
55602;BMP280;59921;51.332;12.410;2023-07-24T10:55:34;99048.38;;;27.66
55602;BMP280;59921;51.332;12.410;2023-07-24T10:57:59;99044.34;;;27.67
55602;BMP280;59921;51.332;12.410;2023-07-24T11:00:26;99038.81;;;27.67
55602;BMP280;59921;51.332;12.410;2023-07-24T11:02:55;99030.50;;;27.67
55602;BMP280;59921;51.332;12.410;2023-07-24T11:05:22;99039.00;;;27.69
55602;BMP280;59921;51.332;12.410;2023-07-24T11:07:48;99031.97;;;27.68
55602;BMP280;59921;51.332;12.410;2023-07-24T11:10:20;99024.97;;;27.67
55602;BMP280;59921;51.332;12.410;2023-07-24T11:12:46;99030.69;;;27.69
55602;BMP280;59921;51.332;12.410;2023-07-24T11:15:13;99030.50;;;27.67
55602;BMP280;59921;51.332;12.410;2023-07-24T11:17:40;99031.97;;;27.68
55602;BMP280;59921;51.332;12.410;2023-07-24T11:22:33;99024.41;;;27.69
55602;BMP280;59921;51.332;12.410;2023-07-24T11:24:58;99031.97;;;27.68
55602;BMP280;59921;51.332;12.410;2023-07-24T11:27:24;99029.94;;;27.69
55602;BMP280;59921;51.332;12.410;2023-07-24T11:29:50;99032.72;;;27.69
55602;BMP280;59921;51.332;12.410;2023-07-24T11:32:20;99027.19;;;27.69
55602;BMP280;59921;51.332;12.410;2023-07-24T11:34:49;99024.41;;;27.69
55602;BMP280;59921;51.332;12.410;2023-07-24T11:37:16;99020.88;;;27.68
55602;BMP280;59921;51.332;12.410;2023-07-24T11:39:42;99024.41;;;27.69
55602;BMP280;59921;51.332;12.410;2023-07-24T11:42:07;99021.63;;;27.69
55602;BMP280;59921;51.332;12.410;2023-07-24T11:44:33;99031.44;;;27.70
55602;BMP280;59921;51.332;12.410;2023-07-24T11:47:05;99017.00;;;27.71
55602;BMP280;59921;51.332;12.410;2023-07-24T11:49:32;99015.75;;;27.72
55602;BMP280;59921;51.332;12.410;2023-07-24T11:52:05;99016.50;;;27.73
55602;BMP280;59921;51.332;12.410;2023-07-24T11:54:34;99006.16;;;27.73
55602;BMP280;59921;51.332;12.410;2023-07-24T11:57:01;98995.09;;;27.73
55602;BMP280;59921;51.332;12.410;2023-07-24T11:59:27;98996.56;;;27.74
55602;BMP280;59921;51.332;12.410;2023-07-24T12:01:53;98997.28;;;27.75
55602;BMP280;59921;51.332;12.410;2023-07-24T12:04:18;98998.78;;;27.76
55602;BMP280;59921;51.332;12.410;2023-07-24T12:06:45;98991.75;;;27.75
55602;BMP280;59921;51.332;12.410;2023-07-24T12:09:11;98995.47;;;27.77
55602;BMP280;59921;51.332;12.410;2023-07-24T12:11:41;98989.22;;;27.77
55602;BMP280;59921;51.332;12.410;2023-07-24T12:14:07;98981.81;;;27.79
55602;BMP280;59921;51.332;12.410;2023-07-24T12:16:36;98969.44;;;27.80
55602;BMP280;59921;51.332;12.410;2023-07-24T12:19:02;98970.94;;;27.81
55602;BMP280;59921;51.332;12.410;2023-07-24T12:21:27;98960.03;;;27.83
55602;BMP280;59921;51.332;12.410;2023-07-24T12:23:53;98960.59;;;27.82
55602;BMP280;59921;51.332;12.410;2023-07-24T12:26:19;98950.06;;;27.80
55602;BMP280;59921;51.332;12.410;2023-07-24T12:28:44;98952.31;;;27.82
55602;BMP280;59921;51.332;12.410;2023-07-24T12:31:21;98960.59;;;27.82
55602;BMP280;59921;51.332;12.410;2023-07-24T12:33:46;98958.38;;;27.80
55602;BMP280;59921;51.332;12.410;2023-07-24T12:36:12;98950.81;;;27.81
55602;BMP280;59921;51.332;12.410;2023-07-24T12:38:37;98946.75;;;27.82
55602;BMP280;59921;51.332;12.410;2023-07-24T12:41:03;98940.66;;;27.83
55602;BMP280;59921;51.332;12.410;2023-07-24T12:43:28;98928.88;;;27.83
55602;BMP280;59921;51.332;12.410;2023-07-24T12:45:54;98929.03;;;27.85
55602;BMP280;59921;51.332;12.410;2023-07-24T12:48:19;98929.78;;;27.85
55602;BMP280;59921;51.332;12.410;2023-07-24T12:50:45;98929.03;;;27.85
55602;BMP280;59921;51.332;12.410;2023-07-24T12:53:10;98924.81;;;27.84
55602;BMP280;59921;51.332;12.410;2023-07-24T12:55:36;98922.75;;;27.84
55602;BMP280;59921;51.332;12.410;2023-07-24T12:58:01;98921.28;;;27.83
55602;BMP280;59921;51.332;12.410;2023-07-24T13:00:28;98915.56;;;27.81
55602;BMP280;59921;51.332;12.410;2023-07-24T13:02:55;98903.75;;;27.81
55602;BMP280;59921;51.332;12.410;2023-07-24T13:05:20;98907.06;;;27.79
55602;BMP280;59921;51.332;12.410;2023-07-24T13:07:45;98906.16;;;27.77
55602;BMP280;59921;51.332;12.410;2023-07-24T13:10:11;98895.09;;;27.77
55602;BMP280;59921;51.332;12.410;2023-07-24T13:12:37;98897.09;;;27.76
55602;BMP280;59921;51.332;12.410;2023-07-24T13:15:02;98904.66;;;27.76
55602;BMP280;59921;51.332;12.410;2023-07-24T13:17:28;98889.13;;;27.73
55602;BMP280;59921;51.332;12.410;2023-07-24T13:19:55;98886.38;;;27.73
55602;BMP280;59921;51.332;12.410;2023-07-24T13:22:20;98895.44;;;27.73
55602;BMP280;59921;51.332;12.410;2023-07-24T13:24:46;98881.38;;;27.71
55602;BMP280;59921;51.332;12.410;2023-07-24T13:27:11;98880.66;;;27.71
55602;BMP280;59921;51.332;12.410;2023-07-24T13:29:37;98879.19;;;27.70
55602;BMP280;59921;51.332;12.410;2023-07-24T13:32:02;98872.16;;;27.69
55602;BMP280;59921;51.332;12.410;2023-07-24T13:34:28;98874.41;;;27.70
55602;BMP280;59921;51.332;12.410;2023-07-24T13:36:54;98864.59;;;27.69
55602;BMP280;59921;51.332;12.410;2023-07-24T13:39:19;98864.03;;;27.71
55602;BMP280;59921;51.332;12.410;2023-07-24T13:41:45;98860.34;;;27.68
55602;BMP280;59921;51.332;12.410;2023-07-24T13:44:11;98855.03;;;27.70
55602;BMP280;59921;51.332;12.410;2023-07-24T13:46:36;98846.72;;;27.70
55602;BMP280;59921;51.332;12.410;2023-07-24T13:49:02;98855.03;;;27.70
55602;BMP280;59921;51.332;12.410;2023-07-24T13:51:28;98847.44;;;27.71
55602;BMP280;59921;51.332;12.410;2023-07-24T13:53:54;98842.59;;;27.71
55602;BMP280;59921;51.332;12.410;2023-07-24T13:56:19;98830.09;;;27.70
55602;BMP280;59921;51.332;12.410;2023-07-24T13:58:47;98843.34;;;27.72
55602;BMP280;59921;51.332;12.410;2023-07-24T14:01:13;98833.03;;;27.72
55602;BMP280;59921;51.332;12.410;2023-07-24T14:03:38;98824.19;;;27.74
55602;BMP280;59921;51.332;12.410;2023-07-24T14:06:04;98826.41;;;27.75
55602;BMP280;59921;51.332;12.410;2023-07-24T14:08:29;98824.38;;;27.76
55602;BMP280;59921;51.332;12.410;2023-07-24T14:10:55;98818.84;;;27.76